Time;durP1;ratioP1;P1;durP2;ratioP2;P2;SDS_P1;SDS_P2;PMS_P1;PMS_P2;Temp;Humidity;BMP_temperature;BMP_pressure;BME280_temperature;BME280_humidity;BME280_pressure;Samples;Min_cycle;Max_cycle;Signal;HPM_P1;HPM_P2
2023/02/08 00:00:48;;;;;;;18.35;12.23;;;-0.80;8.50;;;;;;5049595;28;20214;-81
2023/02/08 00:03:15;;;;;;;12.57;9.90;;;-0.80;15.80;;;;;;5042820;28;20907;-82
2023/02/08 00:05:44;;;;;;;15.43;9.07;;;-0.80;10.80;;;;;;5039474;28;20255;-81
2023/02/08 00:08:10;;;;;;;15.85;10.40;;;-0.90;1.00;;;;;;5040029;28;20669;-82
2023/02/08 00:10:37;;;;;;;15.63;10.25;;;-0.90;7.30;;;;;;5039391;28;20664;-82
2023/02/08 00:13:04;;;;;;;16.27;9.70;;;-1.00;16.10;;;;;;5040344;28;20204;-81
2023/02/08 00:15:31;;;;;;;17.13;9.93;;;-1.00;25.30;;;;;;5039736;28;20294;-81
2023/02/08 00:17:58;;;;;;;18.65;10.73;;;-1.00;28.80;;;;;;5040984;28;20294;-82
2023/02/08 00:20:24;;;;;;;17.02;11.07;;;-1.00;47.30;;;;;;5040260;28;20212;-82
2023/02/08 00:22:53;;;;;;;16.83;9.77;;;-1.00;36.40;;;;;;5034689;28;20240;-82
2023/02/08 00:25:20;;;;;;;17.23;10.60;;;-1.00;45.30;;;;;;5039843;28;20302;-82
2023/02/08 00:27:46;;;;;;;21.10;10.57;;;-1.00;51.10;;;;;;5039935;28;20238;-81
2023/02/08 00:30:13;;;;;;;13.68;9.00;;;-1.00;46.80;;;;;;5025425;28;20290;-81
2023/02/08 00:32:40;;;;;;;15.90;10.00;;;-1.00;47.60;;;;;;5039995;28;20218;-82
2023/02/08 00:35:08;;;;;;;14.82;9.07;;;-1.00;49.80;;;;;;5039115;28;20593;-81
2023/02/08 00:37:35;;;;;;;16.38;9.93;;;-1.00;39.40;;;;;;5039726;28;20212;-82
2023/02/08 00:40:04;;;;;;;17.95;10.55;;;-1.00;32.00;;;;;;5038009;28;20295;-81
2023/02/08 00:42:31;;;;;;;17.02;11.55;;;-1.00;23.50;;;;;;5038836;28;20318;-81
2023/02/08 00:44:58;;;;;;;14.63;10.88;;;-1.00;31.10;;;;;;5038675;28;20274;-82
2023/02/08 00:47:25;;;;;;;16.38;10.35;;;-1.00;29.60;;;;;;5039005;28;20231;-80
2023/02/08 00:49:52;;;;;;;15.75;10.07;;;-1.00;31.90;;;;;;5028535;28;20209;-81
2023/02/08 00:52:19;;;;;;;21.75;10.80;;;-1.00;31.20;;;;;;5034837;28;20239;-82
2023/02/08 00:54:46;;;;;;;24.15;10.55;;;-1.00;26.50;;;;;;5038477;28;20312;-81
2023/02/08 00:57:14;;;;;;;20.55;11.95;;;-1.10;27.00;;;;;;5037935;28;20209;-81
2023/02/08 00:59:41;;;;;;;16.45;9.80;;;-1.00;45.00;;;;;;5037968;28;20207;-82
2023/02/08 01:02:09;;;;;;;13.82;9.43;;;-1.00;48.60;;;;;;5027293;28;20261;-82
2023/02/08 01:04:36;;;;;;;18.45;10.80;;;-1.00;48.40;;;;;;5039548;28;20226;-82
2023/02/08 01:07:04;;;;;;;12.63;9.27;;;-1.00;41.20;;;;;;5038629;28;20309;-82
2023/02/08 01:09:31;;;;;;;14.20;10.30;;;-1.00;29.00;;;;;;5038021;28;20743;-83
2023/02/08 01:11:57;;;;;;;20.25;11.52;;;-1.10;23.20;;;;;;5037945;28;20225;-82
2023/02/08 01:14:26;;;;;;;16.98;10.20;;;-1.20;29.40;;;;;;5038205;28;20278;-82
2023/02/08 01:16:53;;;;;;;16.88;11.10;;;-1.10;46.40;;;;;;5038278;28;20210;-82
2023/02/08 01:19:20;;;;;;;14.88;10.18;;;-1.20;42.40;;;;;;5039550;28;20212;-82
2023/02/08 01:21:48;;;;;;;13.88;9.77;;;-1.20;45.90;;;;;;5037399;28;20311;-82
2023/02/08 01:24:15;;;;;;;13.65;10.07;;;-1.20;46.80;;;;;;5038490;28;20223;-82
2023/02/08 01:26:42;;;;;;;14.77;10.50;;;-1.20;56.10;;;;;;5037112;28;20227;-81
2023/02/08 01:29:09;;;;;;;15.50;8.75;;;-1.10;54.20;;;;;;5037374;28;20298;-82
2023/02/08 01:31:40;;;;;;;14.85;9.50;;;-1.10;43.90;;;;;;5033307;28;20318;-82
2023/02/08 01:34:08;;;;;;;19.30;10.32;;;-1.10;36.30;;;;;;5045215;28;20189;-82
2023/02/08 01:36:36;;;;;;;14.25;9.57;;;-1.20;28.80;;;;;;5053679;28;20206;-82
2023/02/08 01:39:04;;;;;;;14.35;9.25;;;-1.20;26.20;;;;;;5033376;28;20214;-79
2023/02/08 01:41:33;;;;;;;16.55;9.95;;;-1.20;30.70;;;;;;5037443;28;20223;-82
2023/02/08 01:44:28;;;;;;;13.85;10.02;;;-1.20;32.60;;;;;;5036094;28;20230;-82
2023/02/08 01:46:56;;;;;;;14.48;8.60;;;-1.30;40.30;;;;;;5040563;28;20207;-80
2023/02/08 01:49:27;;;;;;;14.80;9.55;;;-1.30;29.80;;;;;;5037176;28;20275;-82
2023/02/08 01:51:58;;;;;;;17.35;10.50;;;-1.30;40.00;;;;;;5035267;28;20707;-83
2023/02/08 01:54:29;;;;;;;15.40;9.60;;;-1.40;36.70;;;;;;5034064;28;20214;-81
2023/02/08 01:56:56;;;;;;;13.40;9.13;;;-1.40;36.60;;;;;;5040323;28;20282;-83
2023/02/08 01:59:26;;;;;;;16.40;10.65;;;-1.40;47.50;;;;;;5037528;28;20206;-83
2023/02/08 02:01:56;;;;;;;15.93;11.30;;;-1.40;70.80;;;;;;5038277;28;20226;-83
2023/02/08 02:04:26;;;;;;;16.00;9.95;;;-1.50;64.30;;;;;;5038722;28;20245;-83
2023/02/08 02:06:55;;;;;;;18.40;10.10;;;-1.50;77.70;;;;;;5039108;28;20290;-83
2023/02/08 02:09:28;;;;;;;18.27;9.55;;;-1.50;82.70;;;;;;5037655;28;20198;-83
2023/02/08 02:11:55;;;;;;;14.90;10.18;;;-1.50;78.90;;;;;;5040414;28;20730;-83
2023/02/08 02:14:23;;;;;;;12.60;9.40;;;-1.50;67.90;;;;;;5041792;28;20232;-83
2023/02/08 02:16:50;;;;;;;13.63;8.30;;;-1.50;72.70;;;;;;5042183;28;20213;-83
2023/02/08 02:19:29;;;;;;;15.60;10.23;;;-1.50;81.50;;;;;;5041591;28;20269;-83
2023/02/08 02:22:06;;;;;;;21.02;12.05;;;-1.50;81.20;;;;;;5042426;28;20234;-83
2023/02/08 02:25:06;;;;;;;12.65;8.80;;;-1.50;58.20;;;;;;5041824;28;20314;-83
2023/02/08 02:27:52;;;;;;;14.00;9.48;;;-1.60;63.00;;;;;;5030547;28;20208;-83
2023/02/08 02:30:45;;;;;;;14.77;9.38;;;-1.60;80.90;;;;;;5041203;28;20226;-82
2023/02/08 02:33:37;;;;;;;15.38;10.10;;;-1.60;91.00;;;;;;5043078;28;20708;-84
2023/02/08 02:36:14;;;;;;;17.52;10.23;;;-1.70;78.60;;;;;;5040849;28;20203;-82
2023/02/08 02:38:55;;;;;;;16.40;9.95;;;-1.70;91.70;;;;;;5045060;28;20265;-82
2023/02/08 02:44:24;;;;;;;15.55;8.77;;;-1.70;99.90;;;;;;5042207;28;20372;-82
2023/02/08 02:47:01;;;;;;;15.77;10.13;;;-1.70;99.90;;;;;;5049649;28;20277;-82
2023/02/08 02:49:36;;;;;;;16.65;9.20;;;-1.70;99.90;;;;;;5044893;28;20228;-84
2023/02/08 02:52:06;;;;;;;14.57;10.35;;;-1.70;99.90;;;;;;5035520;28;20319;-80
2023/02/08 02:54:38;;;;;;;14.80;9.82;;;-1.70;99.90;;;;;;5042379;28;20638;-81
2023/02/08 02:57:09;;;;;;;15.73;10.05;;;-1.80;98.60;;;;;;5035802;28;20221;-81
2023/02/08 02:59:38;;;;;;;15.35;10.40;;;-1.70;99.90;;;;;;5040656;28;20293;-81
2023/02/08 03:02:06;;;;;;;17.70;10.95;;;-1.70;99.90;;;;;;5040554;28;20230;-81
2023/02/08 03:04:53;;;;;;;15.80;10.82;;;-1.70;99.90;;;;;;5039437;28;20222;-81
2023/02/08 03:07:35;;;;;;;19.00;9.40;;;-1.70;99.90;;;;;;5034540;28;20262;-82
2023/02/08 03:10:09;;;;;;;14.48;9.80;;;-1.70;99.90;;;;;;5037497;28;20211;-81
2023/02/08 03:12:46;;;;;;;16.27;11.07;;;-1.80;99.90;;;;;;5039715;28;20737;-81
2023/02/08 03:15:23;;;;;;;17.33;9.23;;;-1.80;99.90;;;;;;5040093;28;20207;-81
2023/02/08 03:18:04;;;;;;;14.55;9.85;;;-1.80;99.90;;;;;;5038897;28;20202;-82
2023/02/08 03:20:36;;;;;;;14.20;9.27;;;-1.80;99.90;;;;;;5024890;28;20207;-81
2023/02/08 03:23:09;;;;;;;17.25;10.65;;;-1.80;99.90;;;;;;5039452;28;20305;-81
2023/02/08 03:25:43;;;;;;;15.10;8.88;;;-1.80;99.90;;;;;;5039644;28;20220;-82
2023/02/08 03:28:17;;;;;;;16.38;10.75;;;-1.80;99.90;;;;;;5038572;28;20205;-82
2023/02/08 03:30:50;;;;;;;13.60;8.93;;;-1.80;99.90;;;;;;5037462;28;20216;-81
2023/02/08 03:33:21;;;;;;;15.27;9.68;;;-1.80;99.90;;;;;;5038787;28;20214;-82
2023/02/08 03:35:52;;;;;;;12.20;8.82;;;-1.80;99.90;;;;;;5051448;28;20244;-81
2023/02/08 03:38:24;;;;;;;14.50;9.90;;;-1.80;99.90;;;;;;5057204;28;20266;-82
2023/02/08 03:40:53;;;;;;;13.45;9.80;;;-1.80;99.90;;;;;;5055426;28;20237;-82
2023/02/08 03:43:23;;;;;;;15.02;9.60;;;-1.80;99.90;;;;;;5056892;28;20195;-83
2023/02/08 03:45:53;;;;;;;17.13;10.48;;;-1.80;99.90;;;;;;5056852;28;20277;-83
2023/02/08 03:48:21;;;;;;;14.23;9.73;;;-1.90;83.00;;;;;;5036649;28;20267;-82
2023/02/08 03:50:52;;;;;;;14.45;10.10;;;-1.90;96.20;;;;;;5037624;28;20270;-81
2023/02/08 03:53:22;;;;;;;13.95;9.50;;;-1.90;86.30;;;;;;5040506;28;20294;-81
2023/02/08 03:55:54;;;;;;;16.73;10.00;;;-1.90;99.90;;;;;;5038146;28;20202;-80
2023/02/08 03:58:25;;;;;;;13.48;9.60;;;-1.90;96.00;;;;;;5035348;28;20213;-81
2023/02/08 04:00:55;;;;;;;16.80;11.02;;;-1.90;99.90;;;;;;5020088;28;20216;-82
2023/02/08 04:03:26;;;;;;;14.90;9.23;;;-1.90;97.60;;;;;;5040419;28;20568;-82
2023/02/08 04:05:55;;;;;;;18.83;10.95;;;-2.00;99.90;;;;;;5038636;28;20648;-82
2023/02/08 04:08:22;;;;;;;14.73;9.75;;;-2.00;99.90;;;;;;5034761;28;20208;-81
2023/02/08 04:10:49;;;;;;;12.65;9.18;;;-2.00;99.80;;;;;;5035072;28;20266;-82
2023/02/08 04:13:16;;;;;;;13.85;8.95;;;-2.00;99.90;;;;;;5054074;28;20193;-83
2023/02/08 04:15:43;;;;;;;12.93;9.80;;;-2.00;96.30;;;;;;5055483;28;20234;-82
2023/02/08 04:18:10;;;;;;;16.05;9.13;;;-2.00;92.30;;;;;;5054658;28;20221;-83
2023/02/08 04:20:37;;;;;;;14.75;9.52;;;-2.00;96.50;;;;;;5055517;28;20226;-82
2023/02/08 04:23:05;;;;;;;16.10;10.48;;;-2.00;93.00;;;;;;5056370;28;20239;-82
2023/02/08 04:25:32;;;;;;;18.95;10.02;;;-2.00;92.70;;;;;;5056861;28;20234;-82
2023/02/08 04:27:59;;;;;;;14.95;9.43;;;-2.00;78.40;;;;;;5054525;28;20354;-81
2023/02/08 04:30:26;;;;;;;14.43;10.07;;;-2.00;74.80;;;;;;5050215;28;20206;-83
2023/02/08 04:32:53;;;;;;;14.70;8.80;;;-2.00;79.70;;;;;;5053375;28;20222;-83
2023/02/08 04:35:20;;;;;;;14.38;9.55;;;-2.10;60.50;;;;;;5049584;28;20229;-82
2023/02/08 04:37:47;;;;;;;13.48;9.52;;;-2.10;61.80;;;;;;5052986;28;20203;-80
2023/02/08 04:40:15;;;;;;;15.15;9.55;;;-2.10;65.00;;;;;;5047606;28;20349;-81
2023/02/08 04:42:42;;;;;;;15.15;8.70;;;-2.10;94.00;;;;;;5031380;28;20231;-81
2023/02/08 04:45:10;;;;;;;13.32;9.00;;;-2.00;91.60;;;;;;5023228;28;20325;-81
2023/02/08 04:47:36;;;;;;;11.45;8.98;;;-2.10;79.00;;;;;;5039138;28;20245;-81
2023/02/08 04:50:04;;;;;;;10.32;8.38;;;-2.10;92.90;;;;;;5041162;28;20270;-82
2023/02/08 04:52:31;;;;;;;13.63;9.07;;;-2.10;67.80;;;;;;5041359;28;20324;-81
2023/02/08 04:54:58;;;;;;;14.57;8.30;;;-2.10;85.30;;;;;;5041321;28;20285;-82
2023/02/08 04:57:26;;;;;;;13.50;9.65;;;-2.10;70.50;;;;;;5038628;28;20301;-82
2023/02/08 04:59:53;;;;;;;12.00;8.60;;;-2.10;66.40;;;;;;5038367;28;20695;-84
2023/02/08 05:02:20;;;;;;;14.45;8.00;;;-2.10;62.50;;;;;;5038889;28;20277;-83
2023/02/08 05:04:47;;;;;;;15.20;9.45;;;-2.20;78.90;;;;;;5039363;28;20226;-82
2023/02/08 05:07:14;;;;;;;14.25;8.40;;;-2.10;81.00;;;;;;5035737;28;20215;-83
2023/02/08 05:09:41;;;;;;;14.77;9.20;;;-2.10;70.80;;;;;;5034727;28;20695;-82
2023/02/08 05:12:08;;;;;;;12.57;8.57;;;-2.10;72.90;;;;;;5033804;28;20233;-82
2023/02/08 05:14:36;;;;;;;13.43;8.95;;;-2.10;69.80;;;;;;5038958;28;20731;-81
2023/02/08 05:17:04;;;;;;;12.80;8.30;;;-2.10;60.70;;;;;;5039431;28;20213;-84
2023/02/08 05:19:31;;;;;;;12.52;8.82;;;-2.10;59.50;;;;;;5046155;28;20206;-86
2023/02/08 05:21:58;;;;;;;17.55;9.85;;;-2.20;47.90;;;;;;5037210;28;20210;-87
2023/02/08 05:24:26;;;;;;;14.85;8.50;;;-2.10;58.80;;;;;;5055770;28;20235;-89
2023/02/08 05:26:52;;;;;;;12.77;8.93;;;-2.20;50.00;;;;;;5055592;28;20202;-89
2023/02/08 05:29:19;;;;;;;14.80;9.20;;;-2.20;58.00;;;;;;5037149;28;20199;-87
2023/02/08 05:31:47;;;;;;;15.15;9.07;;;-2.30;54.20;;;;;;5031372;28;20222;-84
2023/02/08 05:34:14;;;;;;;15.90;9.07;;;-2.30;56.60;;;;;;5035402;28;20205;-85
2023/02/08 05:36:41;;;;;;;15.23;9.60;;;-2.30;89.90;;;;;;5031997;28;20754;-84
2023/02/08 05:39:09;;;;;;;15.10;8.75;;;-2.30;80.90;;;;;;5034227;28;20242;-85
2023/02/08 05:41:35;;;;;;;15.18;9.15;;;-2.30;80.10;;;;;;5033784;28;20222;-86
2023/02/08 05:44:02;;;;;;;15.43;9.75;;;-2.30;69.90;;;;;;5033818;28;20202;-86
2023/02/08 05:46:29;;;;;;;14.32;8.93;;;-2.30;63.90;;;;;;5032974;28;20289;-83
2023/02/08 05:48:57;;;;;;;14.82;8.40;;;-2.30;89.40;;;;;;5030554;28;20206;-83
2023/02/08 05:54:02;;;;;;;15.60;9.85;;;-2.20;74.20;;;;;;5061521;28;20221;-81
2023/02/08 05:56:29;;;;;;;13.55;8.70;;;-2.20;82.40;;;;;;5042689;28;20309;-81
2023/02/08 05:58:56;;;;;;;16.83;9.63;;;-2.20;77.60;;;;;;5056248;28;20372;-80
2023/02/08 06:01:26;;;;;;;12.20;8.60;;;-2.30;70.60;;;;;;5047689;28;20202;-81
2023/02/08 06:03:53;;;;;;;14.45;8.55;;;-2.30;83.80;;;;;;5025040;28;20641;-81
2023/02/08 06:06:21;;;;;;;16.42;9.18;;;-2.30;49.90;;;;;;5029316;28;20314;-81
2023/02/08 06:08:48;;;;;;;13.40;9.60;;;-2.30;86.80;;;;;;5026491;28;20600;-78
2023/02/08 06:11:15;;;;;;;13.07;8.15;;;-2.30;72.60;;;;;;5021811;28;20216;-83
2023/02/08 06:13:42;;;;;;;9.63;7.97;;;-2.30;79.60;;;;;;5031613;28;20804;-80
2023/02/08 06:16:09;;;;;;;14.32;8.60;;;-2.30;84.70;;;;;;5026142;28;20290;-83
2023/02/08 06:18:36;;;;;;;18.08;8.88;;;-2.30;74.90;;;;;;5025470;28;20206;-82
2023/02/08 06:21:03;;;;;;;15.00;8.55;;;-2.30;90.10;;;;;;5031845;28;20293;-81
2023/02/08 06:23:31;;;;;;;11.82;7.35;;;-2.30;84.50;;;;;;5029646;28;20222;-80
2023/02/08 06:25:58;;;;;;;12.60;7.75;;;-2.30;91.50;;;;;;5035369;28;20787;-80
2023/02/08 06:28:25;;;;;;;11.15;7.30;;;-2.30;75.70;;;;;;5023964;28;20577;-78
2023/02/08 06:30:52;;;;;;;11.05;8.52;;;-2.30;81.80;;;;;;5026207;28;20207;-81
2023/02/08 06:33:19;;;;;;;10.23;7.63;;;-2.30;89.20;;;;;;5033718;28;20333;-78
2023/02/08 06:35:46;;;;;;;12.88;8.70;;;-2.30;84.30;;;;;;5022701;28;20580;-79
2023/02/08 06:38:13;;;;;;;15.18;8.60;;;-2.30;84.00;;;;;;5021274;28;20210;-79
2023/02/08 06:40:42;;;;;;;14.00;8.35;;;-2.20;91.80;;;;;;5018370;28;20202;-81
2023/02/08 06:43:09;;;;;;;12.85;8.05;;;-2.20;76.60;;;;;;5028028;28;20250;-81
2023/02/08 06:45:36;;;;;;;10.40;6.75;;;-2.20;66.20;;;;;;5024050;28;20229;-80
2023/02/08 06:48:03;;;;;;;12.48;8.35;;;-2.20;70.50;;;;;;5032144;28;20207;-80
2023/02/08 06:50:29;;;;;;;13.43;9.25;;;-2.20;65.70;;;;;;5021002;28;20298;-82
2023/02/08 06:52:56;;;;;;;14.57;7.60;;;-2.20;50.00;;;;;;5023727;28;20329;-81
2023/02/08 06:55:27;;;;;;;9.23;6.70;;;-2.20;64.10;;;;;;5021861;28;20209;-81
2023/02/08 06:57:56;;;;;;;10.38;8.27;;;-2.20;75.70;;;;;;5026469;28;20286;-83
2023/02/08 07:00:23;;;;;;;12.30;7.32;;;-2.20;89.50;;;;;;5025361;28;20294;-82
2023/02/08 07:02:50;;;;;;;13.48;7.78;;;-2.20;95.60;;;;;;5024890;28;20560;-83
2023/02/08 07:05:17;;;;;;;13.63;8.80;;;-2.20;99.60;;;;;;5029938;28;20224;-82
2023/02/08 07:07:47;;;;;;;16.73;9.27;;;-2.10;85.80;;;;;;5025501;28;20207;-81
2023/02/08 07:10:21;;;;;;;16.20;9.50;;;-2.10;85.80;;;;;;5027628;28;20218;-82
2023/02/08 07:12:55;;;;;;;14.13;8.32;;;-2.10;92.70;;;;;;5025989;28;20294;-80
2023/02/08 07:15:23;;;;;;;12.63;7.68;;;-2.10;63.20;;;;;;5031686;28;20252;-81
2023/02/08 07:18:03;;;;;;;11.55;7.78;;;-2.00;71.40;;;;;;5019834;28;20211;-81
2023/02/08 07:20:30;;;;;;;15.15;8.95;;;-2.00;55.90;;;;;;5022104;28;20199;-80
2023/02/08 07:22:58;;;;;;;18.58;8.90;;;-2.00;66.40;;;;;;5041189;23;20319;-82
2023/02/08 07:25:25;;;;;;;13.77;8.50;;;-2.00;51.40;;;;;;5029293;28;20206;-83
2023/02/08 07:27:52;;;;;;;14.50;7.85;;;-2.00;52.90;;;;;;5030369;28;20301;-83
2023/02/08 07:30:19;;;;;;;10.93;7.65;;;-2.00;55.80;;;;;;5033844;28;20207;-81
2023/02/08 07:32:47;;;;;;;11.00;8.30;;;-1.90;71.20;;;;;;5018908;28;20322;-80
2023/02/08 07:35:14;;;;;;;14.75;8.60;;;-1.90;53.90;;;;;;5010380;28;20315;-81
2023/02/08 07:37:41;;;;;;;10.88;7.75;;;-1.90;50.20;;;;;;5007185;28;20583;-81
2023/02/08 07:40:08;;;;;;;13.65;7.40;;;-1.90;71.20;;;;;;5010681;28;20308;-84
2023/02/08 07:42:35;;;;;;;16.45;7.65;;;-1.80;80.40;;;;;;5014976;28;20712;-81
2023/02/08 07:45:03;;;;;;;12.55;7.70;;;-1.70;65.70;;;;;;5002019;28;20205;-82
2023/02/08 07:47:29;;;;;;;11.95;7.63;;;-1.70;57.20;;;;;;5013480;28;20213;-80
2023/02/08 07:49:58;;;;;;;13.27;8.13;;;-1.60;58.80;;;;;;5013523;28;20279;-79
2023/02/08 07:52:25;;;;;;;16.95;7.70;;;-1.60;55.70;;;;;;5011767;28;20227;-81
2023/02/08 07:54:52;;;;;;;14.18;8.00;;;-1.60;42.00;;;;;;5007038;28;20220;-82
2023/02/08 07:57:20;;;;;;;12.40;7.65;;;-1.60;49.10;;;;;;5010250;28;20597;-82
2023/02/08 07:59:48;;;;;;;13.82;8.70;;;-1.50;46.90;;;;;;5002748;28;20207;-80
2023/02/08 08:02:15;;;;;;;12.60;9.02;;;-1.50;50.70;;;;;;5011012;28;20254;-80
2023/02/08 08:04:42;;;;;;;11.93;8.48;;;-1.50;57.30;;;;;;5017709;28;20221;-80
2023/02/08 08:07:10;;;;;;;11.73;7.65;;;-1.50;55.20;;;;;;5014010;28;20218;-82
2023/02/08 08:09:37;;;;;;;15.63;8.35;;;-1.50;52.10;;;;;;5010667;28;20225;-82
2023/02/08 08:12:04;;;;;;;17.13;8.95;;;-1.40;57.70;;;;;;5009327;28;20227;-81
2023/02/08 08:14:31;;;;;;;12.80;7.40;;;-1.30;76.20;;;;;;5003031;28;20203;-83
2023/02/08 08:16:58;;;;;;;13.07;9.43;;;-1.30;57.50;;;;;;5001277;28;20201;-83
2023/02/08 08:19:25;;;;;;;12.23;8.13;;;-1.30;75.50;;;;;;5013374;28;20262;-82
2023/02/08 08:21:52;;;;;;;10.88;7.70;;;-1.20;62.10;;;;;;5004491;28;20235;-82
2023/02/08 08:24:20;;;;;;;16.60;9.13;;;-1.20;64.30;;;;;;4998872;28;20240;-83
2023/02/08 08:26:47;;;;;;;14.48;8.73;;;-1.10;67.30;;;;;;5002388;28;20201;-84
2023/02/08 08:29:14;;;;;;;15.90;9.60;;;-1.10;62.60;;;;;;5008759;28;20584;-80
2023/02/08 08:31:44;;;;;;;12.68;8.68;;;-1.00;72.50;;;;;;5008289;28;20200;-82
2023/02/08 08:34:11;;;;;;;15.02;7.97;;;-1.00;92.30;;;;;;5006786;28;20207;-83
2023/02/08 08:36:37;;;;;;;11.95;7.97;;;-0.90;93.90;;;;;;5007070;28;20224;-82
2023/02/08 08:39:04;;;;;;;15.90;9.45;;;-0.90;90.60;;;;;;5010622;28;20214;-83
2023/02/08 08:41:32;;;;;;;14.15;10.13;;;-0.80;92.00;;;;;;5004559;28;20214;-82
2023/02/08 08:43:59;;;;;;;15.43;9.60;;;-0.70;95.40;;;;;;5013165;28;20206;-82
2023/02/08 08:46:26;;;;;;;15.15;9.13;;;-0.70;96.20;;;;;;5017065;28;20204;-83
2023/02/08 08:48:53;;;;;;;22.38;11.43;;;-0.60;94.30;;;;;;5002667;28;20273;-82
2023/02/08 08:51:20;;;;;;;13.95;9.50;;;-0.50;94.10;;;;;;5010259;28;20300;-81
2023/02/08 08:53:47;;;;;;;18.77;11.77;;;-0.50;94.80;;;;;;5005028;28;20310;-81
2023/02/08 08:56:13;;;;;;;14.15;9.18;;;-0.40;94.70;;;;;;5001923;28;20224;-82
2023/02/08 08:58:42;;;;;;;20.50;10.13;;;-0.30;92.80;;;;;;5009637;28;20211;-81
2023/02/08 09:01:09;;;;;;;16.42;8.98;;;-0.30;91.00;;;;;;4996797;28;20966;-81
2023/02/08 09:03:36;;;;;;;13.45;9.25;;;-0.20;82.40;;;;;;4993523;28;20229;-81
2023/02/08 09:06:02;;;;;;;12.60;9.57;;;-0.10;81.90;;;;;;5004462;28;20210;-81
2023/02/08 09:08:29;;;;;;;14.73;9.10;;;-0.10;72.70;;;;;;5005376;28;20207;-81
2023/02/08 09:10:56;;;;;;;14.00;9.38;;;0.00;67.10;;;;;;4996831;28;20218;-82
2023/02/08 09:13:23;;;;;;;15.43;8.70;;;0.10;70.00;;;;;;5002311;28;20227;-83
2023/02/08 09:15:51;;;;;;;15.23;8.15;;;0.10;68.70;;;;;;5002422;28;21134;-82
2023/02/08 09:18:18;;;;;;;13.00;8.18;;;0.20;57.70;;;;;;5006155;28;20297;-81
2023/02/08 09:20:45;;;;;;;12.43;7.97;;;0.30;59.20;;;;;;5003521;28;20209;-81
2023/02/08 09:23:13;;;;;;;14.30;8.18;;;0.40;60.20;;;;;;4997858;28;20330;-81
2023/02/08 09:25:40;;;;;;;13.95;6.43;;;0.60;52.40;;;;;;5005350;28;20294;-80
2023/02/08 09:28:07;;;;;;;10.75;6.95;;;0.70;1.00;;;;;;5003208;28;20223;-82
2023/02/08 09:30:35;;;;;;;12.57;7.22;;;1.00;1.00;;;;;;4993637;28;20209;-80
2023/02/08 09:33:03;;;;;;;11.27;6.15;;;1.10;1.00;;;;;;4994392;28;20225;-82
2023/02/08 09:35:30;;;;;;;8.53;5.70;;;1.30;1.00;;;;;;4993298;28;20760;-81
2023/02/08 09:38:01;;;;;;;9.97;6.80;;;1.60;1.00;;;;;;5012257;28;20869;-82
2023/02/08 09:40:35;;;;;;;9.27;6.00;;;1.70;99.90;;;;;;5004497;28;20493;-83
2023/02/08 09:43:09;;;;;;;11.77;6.70;;;1.80;99.90;;;;;;5014988;28;20232;-82
2023/02/08 09:45:44;;;;;;;7.80;5.73;;;2.00;99.90;;;;;;5016614;28;20439;-83
2023/02/08 09:48:20;;;;;;;10.90;6.20;;;2.30;99.90;;;;;;5014768;28;20429;-82
2023/02/08 09:50:51;;;;;;;8.00;4.90;;;2.50;98.50;;;;;;5015206;28;20235;-82
2023/02/08 09:53:23;;;;;;;8.77;5.50;;;2.50;8.50;;;;;;5011477;28;20449;-81
2023/02/08 09:55:53;;;;;;;11.17;5.73;;;2.80;1.00;;;;;;5014630;28;20493;-81
2023/02/08 09:58:26;;;;;;;8.80;4.83;;;3.40;96.90;;;;;;5009997;28;20453;-81
2023/02/08 10:00:54;;;;;;;6.73;5.13;;;3.70;99.90;;;;;;5002140;28;20439;-82
2023/02/08 10:03:33;;;;;;;6.70;4.83;;;3.90;99.90;;;;;;5011775;28;20477;-82
2023/02/08 10:06:00;;;;;;;9.00;5.43;;;4.10;1.00;;;;;;5004303;28;20406;-82
2023/02/08 10:08:29;;;;;;;7.77;5.03;;;4.60;1.00;;;;;;5004271;28;20461;-82
2023/02/08 10:11:04;;;;;;;7.73;3.93;;;4.80;99.90;;;;;;5017923;28;20461;-82
2023/02/08 10:13:52;;;;;;;7.47;4.63;;;4.70;1.00;;;;;;5007861;28;20553;-82
2023/02/08 10:16:37;;;;;;;9.40;4.83;;;4.30;1.00;;;;;;4994381;28;20582;-82
2023/02/08 10:19:18;;;;;;;6.13;3.73;;;4.10;1.00;;;;;;5008680;28;20457;-81
2023/02/08 10:21:57;;;;;;;6.37;3.80;;;4.30;1.00;;;;;;4994985;28;21141;-82
2023/02/08 10:24:41;;;;;;;6.77;3.77;;;5.30;1.00;;;;;;5011196;28;20824;-82
2023/02/08 10:27:14;;;;;;;7.43;4.40;;;6.40;1.00;;;;;;4994320;28;20523;-82
2023/02/08 10:30:11;;;;;;;11.07;4.30;;;7.30;1.00;;;;;;5007109;28;20449;-81
2023/02/08 10:32:54;;;;;;;5.97;3.70;;;7.30;1.00;;;;;;4993584;28;20485;-82
2023/02/08 10:35:27;;;;;;;12.70;4.10;;;7.40;1.00;;;;;;5008452;28;20482;-79
2023/02/08 10:37:55;;;;;;;8.50;3.57;;;8.00;1.00;;;;;;5005250;28;20460;-83
2023/02/08 10:40:31;;;;;;;4.53;2.83;;;8.70;1.00;;;;;;5001182;28;20968;-85
2023/02/08 10:43:16;;;;;;;3.70;2.03;;;8.50;1.00;;;;;;4998631;28;20509;-84
2023/02/08 10:45:50;;;;;;;6.20;2.37;;;8.50;1.00;;;;;;5019515;28;20477;-85
2023/02/08 10:48:27;;;;;;;3.73;2.50;;;9.50;1.00;;;;;;5004546;28;20529;-84
2023/02/08 10:50:56;;;;;;;4.60;2.47;;;11.20;1.00;;;;;;5002099;28;20460;-85
2023/02/08 10:53:23;;;;;;;3.63;2.23;;;13.00;1.00;;;;;;5019864;28;20563;-85
2023/02/08 10:55:50;;;;;;;3.10;2.23;;;14.10;1.00;;;;;;5022816;28;20484;-86
2023/02/08 10:58:19;;;;;;;4.20;2.30;;;15.50;1.00;;;;;;5036371;28;20512;-86
2023/02/08 11:00:47;;;;;;;5.00;2.70;;;17.50;1.00;;;;;;5009964;28;20485;-84
2023/02/08 11:03:17;;;;;;;3.80;2.77;;;19.20;1.00;;;;;;5005530;28;20486;-85
2023/02/08 11:05:45;;;;;;;5.03;3.23;;;21.20;1.00;;;;;;5011072;28;20500;-85
2023/02/08 11:08:16;;;;;;;3.87;2.97;;;22.20;1.00;;;;;;4997223;28;20473;-85
2023/02/08 11:10:54;;;;;;;4.30;3.40;;;23.80;1.00;;;;;;4998701;28;20530;-84
2023/02/08 11:13:22;;;;;;;6.87;3.33;;;24.50;1.00;;;;;;4998827;28;20498;-84
2023/02/08 11:15:51;;;;;;;4.57;3.07;;;25.00;1.00;;;;;;5004700;28;20496;-85
2023/02/08 11:18:22;;;;;;;4.23;3.50;;;26.00;1.00;;;;;;5018068;28;20456;-84
2023/02/08 11:20:52;;;;;;;4.37;3.10;;;25.90;1.00;;;;;;5017843;28;20465;-84
2023/02/08 11:23:24;;;;;;;4.50;3.63;;;26.70;1.00;;;;;;5017654;28;20600;-84
2023/02/08 11:25:52;;;;;;;4.43;3.60;;;26.40;1.00;;;;;;5018368;28;20469;-85
2023/02/08 11:28:25;;;;;;;4.73;3.30;;;27.20;1.00;;;;;;5002177;28;20454;-85
2023/02/08 11:31:00;;;;;;;4.37;3.63;;;28.30;1.00;;;;;;5005765;28;20446;-84
2023/02/08 11:33:28;;;;;;;5.10;4.10;;;27.90;1.00;;;;;;5015180;28;20489;-85
2023/02/08 11:36:08;;;;;;;4.73;3.33;;;27.10;1.00;;;;;;5018731;28;20500;-86
2023/02/08 11:38:42;;;;;;;4.30;3.50;;;26.20;1.00;;;;;;5017781;28;20465;-85
2023/02/08 11:41:17;;;;;;;4.83;3.63;;;27.10;1.00;;;;;;5011135;28;20466;-84
2023/02/08 11:43:54;;;;;;;4.80;3.67;;;28.30;1.00;;;;;;5010162;28;20488;-83
2023/02/08 11:46:24;;;;;;;4.60;3.50;;;29.10;1.00;;;;;;5006719;28;20556;-84
2023/02/08 11:48:52;;;;;;;4.10;3.33;;;29.80;1.00;;;;;;5015079;28;20998;-84
2023/02/08 11:51:31;;;;;;;4.23;3.67;;;29.10;1.00;;;;;;5006566;28;20463;-84
2023/02/08 11:54:01;;;;;;;4.40;3.23;;;29.80;1.00;;;;;;5005188;28;20466;-85
2023/02/08 11:56:29;;;;;;;4.93;3.70;;;27.00;1.00;;;;;;5005651;28;20458;-85
2023/02/08 11:59:15;;;;;;;4.90;3.57;;;27.70;1.00;;;;;;5006300;28;20569;-80
2023/02/08 12:01:43;;;;;;;5.00;3.50;;;27.50;1.00;;;;;;4999117;28;20466;-78
2023/02/08 12:04:12;;;;;;;6.03;3.53;;;28.10;1.00;;;;;;5006985;28;20469;-80
2023/02/08 12:06:58;;;;;;;3.97;3.20;;;28.00;1.00;;;;;;5004071;28;20589;-80
2023/02/08 12:09:42;;;;;;;4.47;3.20;;;27.70;1.00;;;;;;5005861;28;20515;-80
2023/02/08 12:12:16;;;;;;;3.77;3.00;;;27.80;1.00;;;;;;4998318;28;20482;-80
2023/02/08 12:14:55;;;;;;;3.63;3.07;;;28.60;1.00;;;;;;5004850;28;21035;-81
2023/02/08 12:17:46;;;;;;;3.83;3.23;;;29.30;1.00;;;;;;5010279;28;20437;-81
2023/02/08 12:20:32;;;;;;;4.40;3.57;;;29.20;1.00;;;;;;5001878;28;20548;-81
2023/02/08 12:23:14;;;;;;;4.37;3.13;;;29.40;1.00;;;;;;5006788;28;20485;-80
2023/02/08 12:25:46;;;;;;;6.53;3.30;;;27.90;1.00;;;;;;4997199;28;20494;-83
2023/02/08 12:28:19;;;;;;;3.60;3.03;;;29.20;1.00;;;;;;5004930;28;20492;-80
2023/02/08 12:30:54;;;;;;;3.83;2.70;;;29.90;1.00;;;;;;5010454;28;20466;-81
2023/02/08 12:33:47;;;;;;;4.13;2.90;;;30.50;1.00;;;;;;5003923;28;20488;-81
2023/02/08 12:36:26;;;;;;;3.87;3.43;;;29.90;1.00;;;;;;5009619;28;20488;-81
2023/02/08 12:42:15;;;;;;;4.00;3.40;;;31.40;1.00;;;;;;5004928;28;20840;-80
2023/02/08 12:44:53;;;;;;;3.13;2.40;;;31.40;1.00;;;;;;5003470;28;20454;-80
2023/02/08 12:47:44;;;;;;;4.57;3.23;;;29.70;1.00;;;;;;5005698;28;20478;-81
2023/02/08 12:50:23;;;;;;;4.13;3.27;;;28.00;1.00;;;;;;5001611;28;20488;-81
2023/02/08 12:52:56;;;;;;;4.30;2.83;;;26.70;99.90;;;;;;5006647;28;20547;-80
2023/02/08 12:55:26;;;;;;;3.50;2.53;;;25.50;99.90;;;;;;5004330;28;20465;-81
2023/02/08 12:57:58;;;;;;;4.57;2.90;;;25.20;99.90;;;;;;5001102;28;20462;-80
2023/02/08 13:00:28;;;;;;;3.67;2.57;;;23.80;99.90;;;;;;5001290;28;20553;-81
2023/02/08 13:06:15;;;;;;;5.40;2.97;;;23.30;99.90;;;;;;4983599;28;20467;-82
2023/02/08 13:08:49;;;;;;;5.40;3.17;;;22.30;99.90;;;;;;5000369;28;20449;-80